Time;durP1;ratioP1;P1;durP2;ratioP2;P2;SDS_P1;SDS_P2;PMS_P1;PMS_P2;Temp;Humidity;BMP_temperature;BMP_pressure;BME280_temperature;BME280_humidity;BME280_pressure;Samples;Min_cycle;Max_cycle;Signal;HPM_P1;HPM_P2
2022/01/16 00:04:16;;;;;;;49.33;20.95;;;5.60;51.50;;;;;;5076044;28;20035;-84
2022/01/16 00:06:45;;;;;;;46.25;20.77;;;5.50;51.60;;;;;;5057974;28;20055;-84
2022/01/16 00:09:13;;;;;;;40.13;19.92;;;5.60;51.50;;;;;;5057297;28;20170;-83
2022/01/16 00:11:40;;;;;;;43.90;19.85;;;5.50;51.30;;;;;;5057775;28;20028;-85
2022/01/16 00:14:06;;;;;;;40.70;19.88;;;5.30;51.40;;;;;;5057401;28;20460;-83
2022/01/16 00:16:33;;;;;;;49.75;21.05;;;5.40;51.80;;;;;;5063030;28;20028;-84
2022/01/16 00:18:59;;;;;;;50.38;21.67;;;5.60;51.50;;;;;;5061322;28;20067;-84
2022/01/16 00:21:28;;;;;;;51.88;21.63;;;5.50;51.20;;;;;;5070564;28;20059;-83
2022/01/16 00:24:00;;;;;;;49.75;21.25;;;5.60;51.50;;;;;;5077750;28;20066;-85
2022/01/16 00:26:26;;;;;;;39.85;18.48;;;5.70;52.10;;;;;;5058506;28;20047;-84
2022/01/16 00:28:53;;;;;;;42.80;19.98;;;5.80;51.40;;;;;;5057371;28;20028;-84
2022/01/16 00:31:20;;;;;;;36.50;16.75;;;5.90;51.30;;;;;;5057222;28;20033;-81
2022/01/16 00:33:46;;;;;;;30.45;14.77;;;5.90;51.00;;;;;;5056798;28;20362;-83
2022/01/16 00:36:17;;;;;;;30.27;14.07;;;6.00;51.10;;;;;;5057212;28;20502;-83
2022/01/16 00:38:44;;;;;;;35.83;16.52;;;5.90;51.70;;;;;;5057021;28;20452;-84
2022/01/16 00:41:14;;;;;;;37.53;17.77;;;5.70;50.80;;;;;;5056731;28;20032;-83
2022/01/16 00:43:40;;;;;;;48.67;20.00;;;5.40;50.90;;;;;;5056586;28;20111;-85
2022/01/16 00:46:06;;;;;;;51.75;20.38;;;5.30;51.00;;;;;;5056778;28;20028;-85
2022/01/16 00:48:32;;;;;;;44.35;20.02;;;5.50;51.10;;;;;;5074947;28;20078;-85
2022/01/16 00:50:58;;;;;;;36.20;16.77;;;5.50;51.20;;;;;;5056712;28;20391;-82
2022/01/16 00:53:24;;;;;;;34.38;16.25;;;5.30;50.90;;;;;;5057015;28;20028;-84
2022/01/16 00:55:50;;;;;;;35.92;16.13;;;5.20;51.10;;;;;;5056877;28;20029;-82
2022/01/16 00:58:16;;;;;;;37.30;16.73;;;5.20;51.00;;;;;;5056765;28;20021;-84
2022/01/16 01:00:42;;;;;;;35.45;15.38;;;5.20;51.00;;;;;;5056606;28;20024;-83
2022/01/16 01:03:07;;;;;;;28.58;13.35;;;5.20;51.00;;;;;;5057128;28;20035;-84
2022/01/16 01:05:35;;;;;;;25.55;12.80;;;5.10;51.10;;;;;;5056661;28;20025;-83
2022/01/16 01:08:04;;;;;;;26.73;12.90;;;5.10;51.30;;;;;;5056269;28;20116;-78
2022/01/16 01:10:36;;;;;;;26.67;12.55;;;5.20;52.20;;;;;;5055268;28;20040;-85
2022/01/16 01:13:13;;;;;;;26.90;12.27;;;5.30;51.60;;;;;;5056600;28;20032;-84
2022/01/16 01:15:47;;;;;;;26.98;11.48;;;5.50;51.40;;;;;;5055694;28;20119;-84
2022/01/16 01:18:14;;;;;;;27.15;11.73;;;5.60;51.30;;;;;;5047419;28;20063;-84
2022/01/16 01:20:46;;;;;;;25.90;11.23;;;5.60;51.50;;;;;;5056354;28;20036;-85
2022/01/16 01:23:12;;;;;;;25.10;10.45;;;5.60;51.50;;;;;;5055020;28;20032;-84
2022/01/16 01:25:42;;;;;;;29.50;12.73;;;5.50;50.80;;;;;;5055983;28;20025;-84
2022/01/16 01:28:08;;;;;;;25.23;12.70;;;5.40;51.50;;;;;;5056549;28;20035;-85
2022/01/16 01:30:35;;;;;;;29.58;12.27;;;5.50;51.50;;;;;;5056104;28;20403;-84
2022/01/16 01:33:00;;;;;;;26.17;12.15;;;5.40;51.50;;;;;;5056352;28;20480;-85
2022/01/16 01:35:28;;;;;;;26.92;10.93;;;5.20;52.30;;;;;;5056109;28;20032;-85
2022/01/16 01:37:57;;;;;;;27.90;11.27;;;5.20;51.90;;;;;;5055919;28;20025;-81
2022/01/16 01:40:26;;;;;;;44.83;17.45;;;4.90;51.30;;;;;;5056037;28;20041;-85
2022/01/16 01:51:11;;;;;;;31.55;11.75;;;3.90;55.30;;;;;;5074086;28;20093;-86
2022/01/16 01:53:47;;;;;;;24.02;11.07;;;3.90;55.80;;;;;;5056140;28;20029;-88
2022/01/16 01:56:20;;;;;;;26.63;10.88;;;3.80;54.90;;;;;;5055625;28;20024;-84
2022/01/16 01:58:47;;;;;;;20.30;9.77;;;4.20;54.40;;;;;;5056020;28;20077;-84
2022/01/16 02:01:12;;;;;;;24.65;10.25;;;4.70;53.50;;;;;;5055678;28;20067;-83
2022/01/16 02:06:14;;;;;;;25.08;11.73;;;5.10;51.20;;;;;;5073803;28;20020;-86
2022/01/16 02:08:45;;;;;;;29.02;12.63;;;5.20;50.60;;;;;;5055768;28;20078;-87
2022/01/16 02:11:15;;;;;;;26.20;12.27;;;5.20;50.50;;;;;;5055702;28;20043;-84
2022/01/16 02:35:12;;;;;;;26.85;10.63;;;4.50;50.60;;;;;;5077701;28;20035;-87
2022/01/16 02:37:38;;;;;;;24.85;11.75;;;4.80;50.50;;;;;;5059186;28;20071;-85
2022/01/16 02:40:12;;;;;;;29.45;12.90;;;4.90;50.50;;;;;;5059169;28;20498;-87
2022/01/16 02:42:42;;;;;;;28.15;12.05;;;4.90;50.80;;;;;;5059917;28;20056;-87
2022/01/16 02:45:15;;;;;;;28.77;11.60;;;5.00;50.20;;;;;;5059470;28;20090;-89
2022/01/16 02:47:41;;;;;;;31.77;12.68;;;4.70;50.00;;;;;;5059479;28;20273;-87
2022/01/16 02:50:07;;;;;;;35.85;15.50;;;4.50;49.90;;;;;;5059101;28;20396;-89
2022/01/16 02:52:33;;;;;;;28.50;13.18;;;4.50;50.20;;;;;;5059870;28;20042;-86
2022/01/16 02:55:00;;;;;;;35.05;14.55;;;4.50;49.90;;;;;;5059188;28;20477;-88
2022/01/16 02:57:26;;;;;;;38.45;14.95;;;4.10;50.50;;;;;;5055080;28;20044;-87
2022/01/16 02:59:56;;;;;;;34.75;14.48;;;4.00;50.70;;;;;;5053181;28;20440;-87
2022/01/16 03:02:24;;;;;;;43.83;17.38;;;4.00;50.40;;;;;;5058875;28;20395;-89
2022/01/16 03:04:51;;;;;;;36.88;16.42;;;3.90;50.30;;;;;;5076994;28;20068;-88
2022/01/16 03:07:17;;;;;;;42.67;17.92;;;4.00;51.00;;;;;;5059387;28;20407;-90
2022/01/16 03:12:11;;;;;;;32.75;15.13;;;4.00;50.30;;;;;;5076375;28;20443;-91
2022/01/16 03:14:37;;;;;;;28.48;12.68;;;3.70;50.70;;;;;;5058985;28;20090;-91
2022/01/16 03:17:03;;;;;;;30.15;13.18;;;3.80;50.90;;;;;;5058773;28;20082;-91
2022/01/16 03:22:13;;;;;;;23.98;12.18;;;4.00;50.00;;;;;;5076541;28;20423;-91
2022/01/16 03:24:41;;;;;;;24.98;11.80;;;3.80;50.20;;;;;;5058585;28;20063;-93
2022/01/16 03:27:10;;;;;;;27.55;12.60;;;3.70;50.50;;;;;;5059091;28;20033;-93
2022/01/16 03:29:39;;;;;;;21.33;11.15;;;3.60;51.00;;;;;;5058977;28;20028;-93
2022/01/16 03:32:07;;;;;;;25.05;12.00;;;3.80;50.60;;;;;;5058258;28;20051;-92
2022/01/16 03:34:33;;;;;;;26.83;11.60;;;3.80;50.70;;;;;;5059140;28;20021;-93
2022/01/16 03:36:59;;;;;;;26.80;11.65;;;3.70;51.00;;;;;;5058060;28;20162;-93
2022/01/16 03:39:25;;;;;;;30.27;13.13;;;3.70;50.90;;;;;;5058673;28;20446;-92
2022/01/16 03:41:50;;;;;;;25.02;12.57;;;3.80;50.80;;;;;;5058119;28;20048;-92
2022/01/16 03:44:16;;;;;;;24.55;11.40;;;3.80;51.10;;;;;;5058367;28;20025;-92
2022/01/16 03:47:17;;;;;;;27.08;12.63;;;3.50;50.70;;;;;;5057929;28;20024;-91
2022/01/16 03:52:39;;;;;;;28.75;11.43;;;3.40;51.10;;;;;;5056787;28;19909;-91
2022/01/16 03:55:07;;;;;;;29.55;11.57;;;3.30;51.00;;;;;;5038943;28;20025;-92
2022/01/16 03:57:36;;;;;;;23.60;11.05;;;3.30;51.60;;;;;;5051642;28;20024;-92
2022/01/16 04:00:05;;;;;;;23.70;11.52;;;3.30;51.00;;;;;;5058223;28;20392;-91
2022/01/16 04:02:32;;;;;;;25.25;11.88;;;3.20;51.50;;;;;;5058229;28;20233;-91
2022/01/16 04:04:58;;;;;;;25.70;10.75;;;3.30;52.10;;;;;;5058324;28;20024;-91
2022/01/16 04:07:28;;;;;;;28.45;10.65;;;3.40;51.80;;;;;;5057882;28;20028;-92
2022/01/16 04:09:54;;;;;;;25.60;11.25;;;3.50;51.60;;;;;;5053718;28;20033;-92
2022/01/16 04:12:23;;;;;;;23.55;10.65;;;3.40;51.60;;;;;;5054450;28;20051;-91
2022/01/16 04:17:22;;;;;;;23.67;11.35;;;3.50;51.20;;;;;;5056324;28;20025;-92
2022/01/16 04:19:49;;;;;;;28.95;11.20;;;3.50;51.40;;;;;;5054376;28;20380;-91
2022/01/16 04:22:22;;;;;;;28.58;12.52;;;3.10;52.10;;;;;;5054308;28;20120;-92
2022/01/16 04:24:48;;;;;;;24.77;11.20;;;3.00;52.40;;;;;;5054438;28;20075;-91
2022/01/16 04:27:14;;;;;;;25.65;10.70;;;3.10;52.50;;;;;;5054250;28;20029;-90
2022/01/16 04:29:42;;;;;;;25.42;11.27;;;3.10;52.80;;;;;;5054029;28;20047;-92
2022/01/16 04:32:09;;;;;;;27.77;12.07;;;3.00;52.00;;;;;;5054974;28;20036;-92
2022/01/16 04:34:35;;;;;;;33.67;13.50;;;3.30;52.60;;;;;;5055066;28;20064;-90
2022/01/16 04:37:02;;;;;;;26.27;11.35;;;3.50;52.60;;;;;;5053786;28;20180;-92
2022/01/16 04:39:32;;;;;;;26.15;12.38;;;3.70;52.00;;;;;;5054299;28;20032;-92
2022/01/16 04:46:46;;;;;;;37.80;14.52;;;4.10;50.10;;;;;;5056029;27;1780935;-91
2022/01/16 04:49:12;;;;;;;28.73;11.20;;;4.00;52.20;;;;;;5086368;28;20056;-92
2022/01/16 04:51:38;;;;;;;34.35;13.55;;;3.90;50.60;;;;;;5101524;28;20027;-90
2022/01/16 04:54:04;;;;;;;27.45;10.82;;;3.90;50.50;;;;;;5093392;28;20032;-90
2022/01/16 04:56:32;;;;;;;27.92;10.65;;;3.70;50.50;;;;;;5093226;28;20028;-89
2022/01/16 04:58:58;;;;;;;33.83;12.50;;;3.60;50.40;;;;;;5093342;28;20042;-90
2022/01/16 05:01:24;;;;;;;26.70;10.55;;;3.00;51.00;;;;;;5087989;28;20402;-90
2022/01/16 05:04:12;;;;;;;23.90;10.32;;;3.10;51.70;;;;;;5111261;28;20024;-90
2022/01/16 05:06:38;;;;;;;22.92;9.70;;;3.20;51.30;;;;;;5090605;28;20032;-88
2022/01/16 05:09:06;;;;;;;19.80;9.40;;;3.00;51.90;;;;;;5105144;28;20482;-88
2022/01/16 05:11:32;;;;;;;21.55;10.48;;;3.20;51.70;;;;;;5072871;28;20094;-88
2022/01/16 05:16:37;;;;;;;24.50;10.15;;;3.20;52.10;;;;;;5097989;28;20403;-88
2022/01/16 05:19:13;;;;;;;23.85;10.70;;;3.10;51.70;;;;;;5072942;28;20093;-88
2022/01/16 05:21:42;;;;;;;29.27;10.88;;;3.00;51.50;;;;;;5086897;28;20023;-87
2022/01/16 05:24:11;;;;;;;39.90;12.27;;;2.90;51.60;;;;;;5088851;28;20035;-89
2022/01/16 05:26:38;;;;;;;38.53;13.40;;;2.90;52.00;;;;;;5090809;28;20062;-93
2022/01/16 05:29:04;;;;;;;40.33;13.32;;;3.10;51.60;;;;;;5109424;28;20024;-89
2022/01/16 05:31:30;;;;;;;36.08;13.55;;;3.10;51.70;;;;;;5091524;28;20021;-88
2022/01/16 05:33:56;;;;;;;33.33;13.70;;;3.30;51.70;;;;;;5072567;28;20024;-86
2022/01/16 05:36:22;;;;;;;32.75;13.18;;;3.30;52.00;;;;;;5087809;28;20118;-91
2022/01/16 05:38:49;;;;;;;25.63;12.38;;;3.20;52.00;;;;;;5089317;28;20395;-89
2022/01/16 05:41:18;;;;;;;28.85;12.55;;;3.30;52.00;;;;;;5092775;28;20028;-88
2022/01/16 05:43:44;;;;;;;28.00;11.50;;;3.10;51.70;;;;;;5080037;28;20028;-88
2022/01/16 05:46:10;;;;;;;29.30;12.52;;;3.10;50.80;;;;;;5073352;28;20315;-87
2022/01/16 05:48:36;;;;;;;27.60;10.98;;;2.90;51.10;;;;;;5072374;28;20378;-88
2022/01/16 05:51:02;;;;;;;28.30;11.68;;;2.90;51.10;;;;;;5072470;28;20035;-90
2022/01/16 05:53:27;;;;;;;28.95;11.52;;;2.90;51.70;;;;;;5090398;28;20475;-90
2022/01/16 05:57:44;;;;;;;23.95;10.40;;;2.90;51.90;;;;;;5082068;27;1421039;-90
2022/01/16 06:00:13;;;;;;;30.80;12.25;;;3.00;51.40;;;;;;5108077;28;20051;-90
2022/01/16 06:02:38;;;;;;;28.02;10.35;;;3.10;51.00;;;;;;5080195;28;20024;-90
2022/01/16 06:05:05;;;;;;;31.90;12.80;;;2.90;51.30;;;;;;5093289;28;20036;-88
2022/01/16 06:07:31;;;;;;;29.75;12.75;;;3.00;51.10;;;;;;5109660;28;20032;-89
2022/01/16 06:09:57;;;;;;;34.85;12.90;;;3.10;51.30;;;;;;5087333;28;20437;-87
2022/01/16 06:12:25;;;;;;;37.80;15.38;;;3.20;51.40;;;;;;5074301;28;20055;-87
2022/01/16 06:15:09;;;;;;;29.00;12.55;;;3.40;51.40;;;;;;5074489;28;20049;-90
2022/01/16 06:17:34;;;;;;;26.73;13.00;;;3.30;50.60;;;;;;5073935;28;20394;-88
2022/01/16 06:20:03;;;;;;;31.00;13.23;;;3.00;51.10;;;;;;5110193;28;20028;-88
2022/01/16 06:22:31;;;;;;;31.37;15.13;;;2.90;51.80;;;;;;5090040;28;20090;-90
2022/01/16 06:24:57;;;;;;;37.53;15.95;;;2.80;52.00;;;;;;5100111;28;20048;-90
2022/01/16 06:27:23;;;;;;;33.90;14.43;;;2.80;52.10;;;;;;5091366;28;20056;-89
2022/01/16 06:29:51;;;;;;;33.22;14.68;;;2.70;52.30;;;;;;5089182;28;20413;-89
2022/01/16 06:32:17;;;;;;;32.83;13.93;;;2.50;52.80;;;;;;5073061;28;20032;-89
2022/01/16 06:34:43;;;;;;;32.63;14.48;;;2.60;53.00;;;;;;5083269;28;20107;-89
2022/01/16 06:37:08;;;;;;;35.08;16.27;;;2.80;52.70;;;;;;5073761;28;20131;-88
2022/01/16 06:39:34;;;;;;;39.22;14.60;;;3.00;52.20;;;;;;5087535;28;20032;-89
2022/01/16 06:42:00;;;;;;;30.30;13.82;;;3.10;52.30;;;;;;5080622;28;20028;-88
2022/01/16 06:44:26;;;;;;;33.13;14.70;;;3.10;52.10;;;;;;5089593;28;20047;-88
2022/01/16 06:46:58;;;;;;;32.13;15.25;;;3.10;52.60;;;;;;5092127;28;20032;-88
2022/01/16 06:49:23;;;;;;;48.17;16.65;;;3.00;52.60;;;;;;5090768;28;20071;-89
2022/01/16 06:51:50;;;;;;;36.08;16.55;;;2.90;52.90;;;;;;5092897;28;20119;-88
2022/01/16 06:54:18;;;;;;;39.35;17.73;;;2.90;53.30;;;;;;5076163;28;20190;-88
2022/01/16 06:56:44;;;;;;;39.10;18.17;;;2.90;53.70;;;;;;5071880;28;20055;-88
2022/01/16 06:59:10;;;;;;;41.00;19.27;;;2.90;54.00;;;;;;5072589;28;20020;-87
2022/01/16 07:01:35;;;;;;;45.88;18.88;;;3.10;53.30;;;;;;5090298;28;20024;-89
2022/01/16 07:04:01;;;;;;;44.42;19.33;;;3.20;53.30;;;;;;5090198;28;20016;-89
2022/01/16 07:06:30;;;;;;;39.50;17.52;;;3.20;53.50;;;;;;4386481;28;10000739;-87
2022/01/16 07:08:55;;;;;;;45.95;20.30;;;3.00;54.00;;;;;;5059594;28;20044;-89
2022/01/16 07:11:21;;;;;;;44.03;19.70;;;3.00;54.40;;;;;;5058807;28;20025;-90
2022/01/16 07:13:47;;;;;;;43.08;19.95;;;3.10;54.10;;;;;;5057405;28;20282;-87
2022/01/16 07:16:13;;;;;;;48.92;20.33;;;3.10;53.90;;;;;;5057726;28;20415;-87
2022/01/16 07:18:38;;;;;;;43.88;19.02;;;2.90;54.00;;;;;;5057348;28;20021;-87
2022/01/16 07:21:12;;;;;;;39.80;19.98;;;2.80;54.60;;;;;;5057419;28;20471;-87
2022/01/16 07:23:42;;;;;;;43.15;19.75;;;2.80;54.80;;;;;;5057402;28;20020;-87
2022/01/16 07:26:08;;;;;;;43.53;20.58;;;3.00;54.90;;;;;;5057740;28;20036;-89
2022/01/16 07:28:34;;;;;;;44.35;19.58;;;3.10;54.30;;;;;;5057628;28;20123;-87
2022/01/16 07:31:00;;;;;;;39.05;18.08;;;2.90;55.00;;;;;;5057472;28;20182;-88
2022/01/16 07:33:26;;;;;;;44.47;19.95;;;2.90;55.10;;;;;;5057923;28;20537;-87
2022/01/16 07:35:51;;;;;;;41.78;19.08;;;2.80;55.50;;;;;;5057150;28;20083;-87
2022/01/16 07:38:17;;;;;;;39.90;18.67;;;2.60;55.90;;;;;;5058568;28;20077;-90
2022/01/16 07:40:46;;;;;;;47.13;19.70;;;2.20;56.70;;;;;;5056530;28;20107;-90
2022/01/16 07:43:13;;;;;;;49.28;20.70;;;1.90;57.50;;;;;;5058108;28;20352;-89
2022/01/16 07:45:39;;;;;;;49.45;21.33;;;2.00;57.90;;;;;;5061314;28;20111;-88
2022/01/16 07:48:09;;;;;;;46.08;22.45;;;2.10;57.30;;;;;;5057758;28;20020;-89
2022/01/16 07:50:39;;;;;;;48.47;20.80;;;2.30;57.10;;;;;;5058557;28;20391;-87
2022/01/16 07:53:07;;;;;;;46.85;22.00;;;2.30;56.50;;;;;;5057268;28;20020;-86
2022/01/16 07:55:33;;;;;;;52.65;23.83;;;2.20;56.80;;;;;;5057728;28;20087;-87
2022/01/16 07:57:59;;;;;;;47.92;20.98;;;2.40;56.90;;;;;;5056940;28;20112;-88
2022/01/16 08:00:26;;;;;;;43.28;20.05;;;2.70;55.90;;;;;;5057466;28;20601;-87
2022/01/16 08:02:53;;;;;;;44.75;19.73;;;3.00;55.60;;;;;;5057407;28;20024;-87
2022/01/16 08:05:20;;;;;;;40.30;19.20;;;3.30;55.00;;;;;;5058076;28;20459;-88
2022/01/16 08:07:49;;;;;;;48.53;20.55;;;3.60;54.20;;;;;;5056949;28;20029;-88
2022/01/16 08:10:14;;;;;;;39.63;18.85;;;3.70;54.40;;;;;;5057297;28;20044;-87
2022/01/16 08:12:40;;;;;;;48.70;20.35;;;3.80;53.60;;;;;;5056994;28;20028;-88
2022/01/16 08:15:07;;;;;;;43.45;19.35;;;4.00;53.30;;;;;;5057392;28;20024;-89
2022/01/16 08:17:36;;;;;;;47.13;21.42;;;4.40;52.90;;;;;;5065735;28;20033;-90
2022/01/16 08:20:07;;;;;;;45.83;19.77;;;4.70;52.60;;;;;;5071271;28;20119;-90
2022/01/16 08:22:33;;;;;;;48.53;21.05;;;4.80;51.70;;;;;;5066682;28;20031;-90
2022/01/16 08:24:59;;;;;;;73.43;28.17;;;4.60;52.50;;;;;;5057911;28;20017;-89
2022/01/16 08:27:25;;;;;;;96.68;32.20;;;4.60;52.60;;;;;;5057102;28;20040;-89
2022/01/16 08:29:50;;;;;;;64.50;25.48;;;4.70;52.60;;;;;;5055994;28;20020;-89
2022/01/16 08:32:19;;;;;;;56.03;24.58;;;4.60;53.00;;;;;;5056724;28;20494;-90
2022/01/16 08:34:45;;;;;;;51.53;23.00;;;4.30;52.90;;;;;;5060844;28;20027;-89
2022/01/16 08:37:13;;;;;;;53.95;22.65;;;4.10;53.10;;;;;;5076631;28;20032;-89
2022/01/16 08:39:39;;;;;;;64.25;28.33;;;4.10;53.90;;;;;;5068454;28;20032;-90
2022/01/16 08:42:06;;;;;;;53.08;23.00;;;4.30;53.30;;;;;;5055925;28;20120;-88
2022/01/16 08:44:32;;;;;;;46.08;20.98;;;4.60;53.00;;;;;;5056683;28;20059;-88
2022/01/16 08:46:58;;;;;;;45.97;21.88;;;4.80;53.00;;;;;;5055992;28;20036;-88
2022/01/16 08:49:24;;;;;;;50.05;21.38;;;4.20;53.20;;;;;;5055741;28;20025;-87
2022/01/16 08:51:50;;;;;;;48.78;22.00;;;4.40;53.90;;;;;;5055951;28;20031;-87
2022/01/16 08:54:16;;;;;;;46.10;22.13;;;4.90;53.60;;;;;;5055717;28;20056;-88
2022/01/16 08:56:44;;;;;;;43.53;18.90;;;6.20;52.00;;;;;;5056176;28;20097;-86
2022/01/16 08:59:09;;;;;;;43.40;21.50;;;7.50;49.20;;;;;;5056393;28;20017;-86
2022/01/16 09:01:35;;;;;;;43.30;21.23;;;8.30;46.80;;;;;;5066679;28;20119;-88
2022/01/16 09:04:01;;;;;;;52.63;22.65;;;8.80;47.00;;;;;;5042451;28;20079;-88
2022/01/16 09:06:30;;;;;;;41.38;21.38;;;9.50;45.70;;;;;;5036692;28;20627;-89
2022/01/16 09:08:58;;;;;;;41.80;21.17;;;10.30;44.40;;;;;;5039921;28;20024;-88
2022/01/16 09:11:25;;;;;;;48.90;23.58;;;10.30;43.50;;;;;;5056992;28;20032;-86
2022/01/16 09:13:52;;;;;;;43.30;21.58;;;10.20;44.60;;;;;;5046234;28;20017;-89
2022/01/16 09:16:19;;;;;;;48.00;22.70;;;10.80;43.90;;;;;;5042468;28;20068;-87
2022/01/16 09:18:47;;;;;;;50.30;23.00;;;11.50;43.10;;;;;;5038871;28;20040;-85
2022/01/16 09:21:18;;;;;;;51.17;25.13;;;11.20;43.00;;;;;;5042293;28;20062;-85
2022/01/16 09:23:45;;;;;;;43.83;21.60;;;10.90;43.60;;;;;;5056435;28;20025;-90
2022/01/16 09:26:12;;;;;;;44.75;23.30;;;11.30;43.10;;;;;;5055965;28;20059;-88
2022/01/16 09:28:38;;;;;;;45.70;23.05;;;11.20;43.30;;;;;;5056020;28;20088;-88
2022/01/16 09:31:04;;;;;;;64.43;33.47;;;11.10;43.40;;;;;;5056041;28;20641;-86
2022/01/16 09:33:30;;;;;;;91.45;43.63;;;11.50;43.20;;;;;;5055915;28;20069;-85
2022/01/16 09:35:55;;;;;;;76.70;39.63;;;11.70;42.70;;;;;;5055934;28;20029;-86
2022/01/16 09:38:22;;;;;;;64.35;34.70;;;12.40;42.60;;;;;;5055917;28;20024;-85
2022/01/16 09:40:49;;;;;;;47.22;24.77;;;13.10;41.90;;;;;;5073558;28;20099;-89
2022/01/16 09:43:25;;;;;;;59.92;28.70;;;13.00;41.40;;;;;;5057546;28;20520;-84
2022/01/16 09:45:54;;;;;;;47.30;24.50;;;14.10;41.20;;;;;;5064931;28;20034;-88
2022/01/16 09:48:20;;;;;;;77.97;40.80;;;14.90;39.60;;;;;;5076241;28;20123;-88
2022/01/16 09:50:46;;;;;;;57.35;32.00;;;15.30;39.70;;;;;;5075386;28;20021;-90
2022/01/16 09:53:13;;;;;;;44.63;23.92;;;15.30;39.30;;;;;;5075887;28;20035;-89
2022/01/16 09:55:39;;;;;;;60.47;32.33;;;14.60;40.10;;;;;;5075045;28;20028;-87
2022/01/16 09:58:05;;;;;;;75.45;41.45;;;14.90;39.90;;;;;;5063164;28;20045;-86
2022/01/16 10:00:31;;;;;;;101.68;58.47;;;15.10;39.60;;;;;;5052079;28;20029;-91
2022/01/16 10:02:57;;;;;;;44.20;25.15;;;15.40;39.40;;;;;;5052606;28;20029;-89
2022/01/16 10:05:25;;;;;;;49.67;28.73;;;15.30;39.60;;;;;;5052449;28;20094;-88
2022/01/16 10:07:54;;;;;;;46.05;25.48;;;15.60;39.60;;;;;;5052318;28;20025;-86
2022/01/16 10:10:25;;;;;;;41.90;22.73;;;16.00;39.00;;;;;;5052424;28;20388;-87
2022/01/16 10:12:54;;;;;;;40.33;22.88;;;16.20;38.10;;;;;;5052430;28;20028;-87
2022/01/16 10:15:27;;;;;;;42.47;23.35;;;14.30;39.70;;;;;;5053641;28;20104;-86
2022/01/16 10:17:58;;;;;;;50.05;29.30;;;12.60;41.60;;;;;;5072188;28;20044;-84
2022/01/16 10:20:28;;;;;;;48.25;27.05;;;12.70;42.50;;;;;;5065749;28;20194;-80
2022/01/16 10:23:00;;;;;;;40.47;22.95;;;14.00;41.30;;;;;;5051982;28;20032;-86
2022/01/16 10:25:38;;;;;;;42.80;23.15;;;15.00;39.50;;;;;;5064833;28;20017;-80
2022/01/16 10:28:14;;;;;;;43.50;25.15;;;15.00;39.70;;;;;;5051553;28;20033;-83
2022/01/16 10:30:43;;;;;;;57.35;35.85;;;15.10;39.40;;;;;;5051330;28;20028;-83
2022/01/16 10:33:14;;;;;;;44.55;26.90;;;15.10;39.40;;;;;;5051732;28;20087;-81
2022/01/16 10:35:41;;;;;;;49.22;28.70;;;15.20;39.20;;;;;;5069013;28;20541;-86
2022/01/16 10:38:23;;;;;;;43.05;26.48;;;15.10;39.50;;;;;;5072305;28;20029;-84
2022/01/16 10:40:50;;;;;;;44.55;24.85;;;15.60;39.50;;;;;;5071846;28;20525;-85
2022/01/16 10:43:40;;;;;;;47.05;24.92;;;16.20;38.50;;;;;;5073745;28;20021;-84
2022/01/16 10:46:08;;;;;;;50.53;27.35;;;16.30;38.90;;;;;;5075151;28;20497;-86
2022/01/16 10:48:34;;;;;;;48.60;25.48;;;17.00;38.10;;;;;;5075530;28;20135;-83
2022/01/16 10:51:01;;;;;;;38.03;21.55;;;17.10;37.80;;;;;;5075743;28;20036;-83
2022/01/16 10:53:29;;;;;;;42.70;23.98;;;16.30;38.00;;;;;;5075358;28;20028;-83
2022/01/16 10:55:59;;;;;;;39.13;21.88;;;15.40;39.30;;;;;;4696570;28;9999809;-86
2022/01/16 10:58:29;;;;;;;42.03;22.90;;;15.20;39.60;;;;;;5035419;28;20136;-85
2022/01/16 11:01:04;;;;;;;39.85;21.55;;;14.00;40.70;;;;;;5035710;28;20088;-83
2022/01/16 11:03:47;;;;;;;42.58;23.65;;;12.80;42.10;;;;;;5035672;28;20033;-85
2022/01/16 11:06:15;;;;;;;49.53;27.20;;;11.60;43.10;;;;;;5054366;28;20032;-85
2022/01/16 11:08:56;;;;;;;46.75;24.67;;;11.60;44.40;;;;;;5055480;28;20025;-85
2022/01/16 11:11:26;;;;;;;47.33;25.10;;;12.10;44.00;;;;;;5055643;28;20025;-87
2022/01/16 11:13:55;;;;;;;50.30;25.73;;;12.40;42.90;;;;;;5068897;28;20020;-87
2022/01/16 11:16:23;;;;;;;46.38;25.63;;;12.70;42.40;;;;;;5075086;28;20059;-86
2022/01/16 11:18:51;;;;;;;43.83;23.30;;;13.00;42.40;;;;;;5075218;28;20059;-86
2022/01/16 11:21:31;;;;;;;44.67;23.15;;;13.20;41.60;;;;;;5072003;28;20041;-87
2022/01/16 11:24:22;;;;;;;40.58;21.88;;;12.50;42.60;;;;;;5057961;28;20024;-85
2022/01/16 11:26:47;;;;;;;44.05;21.35;;;11.30;44.00;;;;;;5036237;28;20029;-84
2022/01/16 11:29:13;;;;;;;43.20;22.55;;;10.60;44.90;;;;;;5034816;28;20026;-85
2022/01/16 11:31:43;;;;;;;46.75;26.45;;;9.80;46.30;;;;;;5035305;28;20033;-86
2022/01/16 11:34:09;;;;;;;44.72;22.75;;;9.30;47.90;;;;;;5049908;28;20430;-87
2022/01/16 11:36:40;;;;;;;50.20;24.48;;;8.90;48.30;;;;;;5055273;28;20515;-83
2022/01/16 11:39:07;;;;;;;47.78;21.90;;;8.40;49.00;;;;;;5054797;28;20025;-87
2022/01/16 11:41:56;;;;;;;48.28;22.88;;;8.10;49.10;;;;;;5054764;28;20036;-85
2022/01/16 11:44:24;;;;;;;41.83;22.38;;;7.40;50.70;;;;;;5055134;28;20473;-85
2022/01/16 11:46:52;;;;;;;47.70;23.25;;;7.00;52.10;;;;;;5054975;28;20025;-84
2022/01/16 11:49:38;;;;;;;42.05;21.95;;;7.00;51.80;;;;;;5054607;28;20025;-84
2022/01/16 11:52:12;;;;;;;48.47;23.25;;;7.00;51.80;;;;;;5054581;28;20025;-84
2022/01/16 11:54:44;;;;;;;51.28;24.92;;;6.70;52.40;;;;;;5057106;28;20082;-84
2022/01/16 11:57:18;;;;;;;50.55;25.50;;;6.40;53.60;;;;;;5046230;28;20051;-84
2022/01/16 11:59:45;;;;;;;43.97;22.63;;;7.00;53.30;;;;;;5074381;28;20019;-84
2022/01/16 12:02:15;;;;;;;42.03;21.90;;;7.50;51.50;;;;;;5055250;28;20064;-84
2022/01/16 12:04:47;;;;;;;51.13;23.77;;;7.70;51.30;;;;;;5053275;28;20029;-84
2022/01/16 12:07:13;;;;;;;44.15;23.00;;;7.50;51.30;;;;;;5053259;28;20370;-84
2022/01/16 12:09:46;;;;;;;47.38;22.90;;;7.70;51.10;;;;;;5053155;28;20541;-84
2022/01/16 12:12:12;;;;;;;50.20;23.80;;;7.30;51.30;;;;;;5053164;28;20025;-84
2022/01/16 12:14:49;;;;;;;44.35;23.00;;;7.00;51.80;;;;;;5053339;28;20090;-85
2022/01/16 12:17:35;;;;;;;47.05;24.38;;;6.80;52.70;;;;;;5052907;28;20403;-84
2022/01/16 12:20:13;;;;;;;49.33;22.77;;;7.30;52.20;;;;;;5053146;28;20050;-84
2022/01/16 12:22:43;;;;;;;44.20;24.10;;;6.30;54.10;;;;;;5053102;28;20021;-83
2022/01/16 12:25:22;;;;;;;43.08;22.63;;;6.90;53.50;;;;;;5053126;28;20550;-84
2022/01/16 12:27:53;;;;;;;46.63;22.73;;;7.00;52.50;;;;;;5052959;28;20035;-82
2022/01/16 12:30:35;;;;;;;46.53;23.52;;;6.30;53.50;;;;;;5053961;28;20575;-84
2022/01/16 12:33:10;;;;;;;47.40;24.40;;;6.70;53.70;;;;;;5053540;28;20029;-85
2022/01/16 12:35:41;;;;;;;46.95;23.40;;;7.20;52.60;;;;;;5053717;28;20029;-85
2022/01/16 12:38:26;;;;;;;48.08;23.08;;;7.10;53.20;;;;;;5055165;28;20021;-86
2022/01/16 12:41:05;;;;;;;48.80;25.48;;;7.50;52.20;;;;;;5052688;28;20083;-87
2022/01/16 12:43:40;;;;;;;46.88;23.95;;;7.50;51.50;;;;;;5053169;28;20025;-86
2022/01/16 12:46:11;;;;;;;44.45;23.52;;;7.70;51.40;;;;;;5053223;28;20061;-86
2022/01/16 12:48:45;;;;;;;74.35;33.47;;;8.00;51.10;;;;;;5053498;28;20036;-86
2022/01/16 12:51:13;;;;;;;48.22;24.92;;;7.00;52.10;;;;;;5054029;28;20119;-86
2022/01/16 12:53:44;;;;;;;44.97;24.17;;;7.30;52.60;;;;;;5053332;28;20027;-87
2022/01/16 12:56:15;;;;;;;;;;;7.80;51.60;;;;;;5054517;28;20037;-86
2022/01/16 12:58:41;;;;;;;47.63;24.05;;;8.10;51.30;;;;;;5057017;28;19912;-86
2022/01/16 13:01:07;;;;;;;57.63;28.83;;;8.20;50.60;;;;;;5056250;28;20021;-86
2022/01/16 13:03:35;;;;;;;45.45;22.75;;;8.40;50.30;;;;;;5056989;28;20051;-87
2022/01/16 13:06:21;;;;;;;43.72;23.52;;;7.80;50.40;;;;;;5056012;28;20464;-86
2022/01/16 13:08:50;;;;;;;45.95;22.98;;;7.80;51.70;;;;;;5056308;28;20023;-88
2022/01/16 13:11:16;;;;;;;43.90;22.67;;;8.10;50.70;;;;;;5056353;28;20052;-85
2022/01/16 13:13:42;;;;;;;46.10;23.70;;;8.20;51.00;;;;;;5056391;28;20375;-89
2022/01/16 13:16:41;;;;;;;46.40;24.10;;;8.30;50.30;;;;;;5056395;28;20468;-86
2022/01/16 13:19:22;;;;;;;40.78;22.35;;;8.00;51.00;;;;;;5041233;28;20033;-86
2022/01/16 13:22:11;;;;;;;45.53;23.45;;;8.20;50.80;;;;;;5056759;28;20025;-87
2022/01/16 13:25:06;;;;;;;96.30;40.50;;;8.00;50.60;;;;;;5046022;28;20064;-86
2022/01/16 13:27:37;;;;;;;60.00;29.52;;;8.30;51.20;;;;;;5055867;28;20043;-86
2022/01/16 13:30:26;;;;;;;46.90;25.70;;;8.10;50.90;;;;;;5056228;28;20016;-88
2022/01/16 13:32:53;;;;;;;44.60;23.77;;;8.00;50.70;;;;;;5056271;28;20032;-86
2022/01/16 13:35:28;;;;;;;69.57;30.25;;;7.70;51.30;;;;;;5055920;28;20395;-86
2022/01/16 13:38:03;;;;;;;45.22;24.30;;;7.70;51.80;;;;;;5055863;28;20036;-86
2022/01/16 13:40:30;;;;;;;50.40;27.23;;;7.30;52.60;;;;;;5056010;28;20016;-87